sensor_id;sensor_type;location;lat;lon;timestamp;P1;durP1;ratioP1;P2;durP2;ratioP2
17177;SDS011;8704;52.006;4.374;2023-03-01T00:01:18;22.25;;;18.70;;
17177;SDS011;8704;52.006;4.374;2023-03-01T00:03:47;20.00;;;17.95;;
17177;SDS011;8704;52.006;4.374;2023-03-01T00:06:15;21.88;;;19.52;;
17177;SDS011;8704;52.006;4.374;2023-03-01T00:08:43;21.27;;;19.00;;
17177;SDS011;8704;52.006;4.374;2023-03-01T00:11:12;21.75;;;19.52;;
17177;SDS011;8704;52.006;4.374;2023-03-01T00:13:43;22.05;;;19.75;;
17177;SDS011;8704;52.006;4.374;2023-03-01T00:16:13;23.45;;;20.13;;
17177;SDS011;8704;52.006;4.374;2023-03-01T00:18:43;22.80;;;20.08;;
17177;SDS011;8704;52.006;4.374;2023-03-01T00:21:11;22.10;;;19.80;;
17177;SDS011;8704;52.006;4.374;2023-03-01T00:23:39;24.23;;;21.23;;
17177;SDS011;8704;52.006;4.374;2023-03-01T00:26:08;23.20;;;20.88;;
17177;SDS011;8704;52.006;4.374;2023-03-01T00:28:40;23.63;;;21.33;;
17177;SDS011;8704;52.006;4.374;2023-03-01T00:31:11;26.65;;;22.48;;
17177;SDS011;8704;52.006;4.374;2023-03-01T00:33:41;26.25;;;23.50;;
17177;SDS011;8704;52.006;4.374;2023-03-01T00:36:11;25.50;;;23.00;;
17177;SDS011;8704;52.006;4.374;2023-03-01T00:38:41;26.58;;;23.85;;
17177;SDS011;8704;52.006;4.374;2023-03-01T00:41:10;24.48;;;21.80;;
17177;SDS011;8704;52.006;4.374;2023-03-01T00:43:40;25.38;;;22.42;;
17177;SDS011;8704;52.006;4.374;2023-03-01T00:46:11;24.25;;;21.73;;
17177;SDS011;8704;52.006;4.374;2023-03-01T00:48:42;25.23;;;22.52;;
17177;SDS011;8704;52.006;4.374;2023-03-01T00:51:11;22.30;;;19.60;;
17177;SDS011;8704;52.006;4.374;2023-03-01T00:53:41;23.20;;;20.83;;
17177;SDS011;8704;52.006;4.374;2023-03-01T00:56:10;23.42;;;21.10;;
17177;SDS011;8704;52.006;4.374;2023-03-01T00:58:39;24.05;;;21.55;;
17177;SDS011;8704;52.006;4.374;2023-03-01T01:01:10;24.88;;;21.67;;
17177;SDS011;8704;52.006;4.374;2023-03-01T01:03:45;22.48;;;20.08;;
17177;SDS011;8704;52.006;4.374;2023-03-01T01:06:14;24.92;;;20.67;;
17177;SDS011;8704;52.006;4.374;2023-03-01T01:08:43;25.33;;;20.65;;
17177;SDS011;8704;52.006;4.374;2023-03-01T01:11:12;25.10;;;21.80;;
17177;SDS011;8704;52.006;4.374;2023-03-01T01:13:40;25.60;;;22.90;;
17177;SDS011;8704;52.006;4.374;2023-03-01T01:16:10;25.52;;;22.95;;
17177;SDS011;8704;52.006;4.374;2023-03-01T01:18:38;26.35;;;23.40;;
17177;SDS011;8704;52.006;4.374;2023-03-01T01:21:07;26.85;;;23.88;;
17177;SDS011;8704;52.006;4.374;2023-03-01T01:23:36;30.13;;;24.95;;
17177;SDS011;8704;52.006;4.374;2023-03-01T01:26:06;28.05;;;25.13;;
17177;SDS011;8704;52.006;4.374;2023-03-01T01:28:35;27.50;;;24.75;;
17177;SDS011;8704;52.006;4.374;2023-03-01T01:31:03;33.58;;;27.77;;
17177;SDS011;8704;52.006;4.374;2023-03-01T01:33:33;31.45;;;27.83;;
17177;SDS011;8704;52.006;4.374;2023-03-01T01:36:03;33.83;;;30.13;;
17177;SDS011;8704;52.006;4.374;2023-03-01T01:38:32;34.30;;;30.77;;
17177;SDS011;8704;52.006;4.374;2023-03-01T01:41:00;39.53;;;35.83;;
17177;SDS011;8704;52.006;4.374;2023-03-01T01:43:29;38.80;;;34.97;;
17177;SDS011;8704;52.006;4.374;2023-03-01T01:45:59;39.85;;;35.90;;
17177;SDS011;8704;52.006;4.374;2023-03-01T01:48:32;41.80;;;37.65;;
17177;SDS011;8704;52.006;4.374;2023-03-01T01:51:09;43.75;;;39.40;;
17177;SDS011;8704;52.006;4.374;2023-03-01T01:53:40;43.83;;;39.63;;
17177;SDS011;8704;52.006;4.374;2023-03-01T01:56:11;43.80;;;39.42;;
17177;SDS011;8704;52.006;4.374;2023-03-01T01:58:42;45.08;;;40.63;;
17177;SDS011;8704;52.006;4.374;2023-03-01T02:01:11;45.15;;;40.85;;
17177;SDS011;8704;52.006;4.374;2023-03-01T02:03:41;46.45;;;42.22;;
17177;SDS011;8704;52.006;4.374;2023-03-01T02:06:12;44.38;;;39.97;;
17177;SDS011;8704;52.006;4.374;2023-03-01T02:11:13;45.38;;;40.90;;
17177;SDS011;8704;52.006;4.374;2023-03-01T02:13:41;48.15;;;43.33;;
17177;SDS011;8704;52.006;4.374;2023-03-01T02:16:11;49.13;;;44.10;;
17177;SDS011;8704;52.006;4.374;2023-03-01T02:18:43;50.42;;;45.35;;
17177;SDS011;8704;52.006;4.374;2023-03-01T02:21:14;47.92;;;43.25;;
17177;SDS011;8704;52.006;4.374;2023-03-01T02:23:52;48.58;;;43.63;;
17177;SDS011;8704;52.006;4.374;2023-03-01T02:26:25;49.38;;;44.65;;
17177;SDS011;8704;52.006;4.374;2023-03-01T02:29:02;48.72;;;43.88;;
17177;SDS011;8704;52.006;4.374;2023-03-01T02:31:31;52.95;;;47.75;;
17177;SDS011;8704;52.006;4.374;2023-03-01T02:34:11;50.40;;;45.15;;
17177;SDS011;8704;52.006;4.374;2023-03-01T02:36:42;52.35;;;47.22;;
17177;SDS011;8704;52.006;4.374;2023-03-01T02:41:45;48.20;;;43.60;;
17177;SDS011;8704;52.006;4.374;2023-03-01T02:44:16;52.92;;;47.60;;
17177;SDS011;8704;52.006;4.374;2023-03-01T02:46:45;54.47;;;49.05;;
17177;SDS011;8704;52.006;4.374;2023-03-01T02:49:18;55.10;;;49.72;;
17177;SDS011;8704;52.006;4.374;2023-03-01T02:51:52;60.90;;;54.60;;
17177;SDS011;8704;52.006;4.374;2023-03-01T02:54:29;60.28;;;54.40;;
17177;SDS011;8704;52.006;4.374;2023-03-01T02:57:01;64.43;;;58.03;;
17177;SDS011;8704;52.006;4.374;2023-03-01T02:59:31;62.47;;;56.22;;
17177;SDS011;8704;52.006;4.374;2023-03-01T03:02:05;62.35;;;55.65;;
17177;SDS011;8704;52.006;4.374;2023-03-01T03:04:33;63.60;;;57.25;;
17177;SDS011;8704;52.006;4.374;2023-03-01T03:07:01;62.20;;;55.53;;
17177;SDS011;8704;52.006;4.374;2023-03-01T03:09:29;70.45;;;63.78;;
17177;SDS011;8704;52.006;4.374;2023-03-01T03:11:58;74.45;;;67.22;;
17177;SDS011;8704;52.006;4.374;2023-03-01T03:14:26;73.35;;;66.25;;
17177;SDS011;8704;52.006;4.374;2023-03-01T03:16:55;73.60;;;66.57;;
17177;SDS011;8704;52.006;4.374;2023-03-01T03:19:23;73.28;;;66.28;;
17177;SDS011;8704;52.006;4.374;2023-03-01T03:21:51;75.63;;;68.40;;
17177;SDS011;8704;52.006;4.374;2023-03-01T03:24:19;77.25;;;69.18;;
17177;SDS011;8704;52.006;4.374;2023-03-01T03:26:47;77.85;;;70.35;;
17177;SDS011;8704;52.006;4.374;2023-03-01T03:29:15;75.70;;;68.45;;
17177;SDS011;8704;52.006;4.374;2023-03-01T03:31:43;73.65;;;66.38;;
17177;SDS011;8704;52.006;4.374;2023-03-01T03:34:13;71.75;;;65.03;;
17177;SDS011;8704;52.006;4.374;2023-03-01T03:36:44;71.65;;;64.68;;
17177;SDS011;8704;52.006;4.374;2023-03-01T03:39:12;69.18;;;62.78;;
17177;SDS011;8704;52.006;4.374;2023-03-01T03:41:40;75.95;;;68.50;;
17177;SDS011;8704;52.006;4.374;2023-03-01T03:44:08;71.85;;;65.00;;
17177;SDS011;8704;52.006;4.374;2023-03-01T03:46:36;77.05;;;69.32;;
17177;SDS011;8704;52.006;4.374;2023-03-01T03:49:04;78.20;;;70.47;;
17177;SDS011;8704;52.006;4.374;2023-03-01T03:51:33;82.38;;;74.00;;
17177;SDS011;8704;52.006;4.374;2023-03-01T03:54:01;86.68;;;78.22;;
17177;SDS011;8704;52.006;4.374;2023-03-01T03:56:30;88.25;;;79.72;;
17177;SDS011;8704;52.006;4.374;2023-03-01T03:58:58;91.10;;;81.57;;
17177;SDS011;8704;52.006;4.374;2023-03-01T04:01:26;92.45;;;83.78;;
17177;SDS011;8704;52.006;4.374;2023-03-01T04:03:54;90.15;;;81.30;;
17177;SDS011;8704;52.006;4.374;2023-03-01T04:06:30;97.45;;;88.00;;
17177;SDS011;8704;52.006;4.374;2023-03-01T04:09:01;104.78;;;92.88;;
17177;SDS011;8704;52.006;4.374;2023-03-01T04:11:29;99.03;;;89.75;;
17177;SDS011;8704;52.006;4.374;2023-03-01T04:13:57;97.95;;;88.57;;
17177;SDS011;8704;52.006;4.374;2023-03-01T04:16:26;99.60;;;89.63;;
17177;SDS011;8704;52.006;4.374;2023-03-01T04:18:55;99.07;;;89.68;;
17177;SDS011;8704;52.006;4.374;2023-03-01T04:21:25;95.97;;;86.18;;
17177;SDS011;8704;52.006;4.374;2023-03-01T04:23:53;96.68;;;87.05;;
17177;SDS011;8704;52.006;4.374;2023-03-01T04:26:23;99.15;;;89.32;;
17177;SDS011;8704;52.006;4.374;2023-03-01T04:28:51;96.40;;;86.95;;
17177;SDS011;8704;52.006;4.374;2023-03-01T04:31:19;96.38;;;86.15;;
17177;SDS011;8704;52.006;4.374;2023-03-01T04:33:48;119.10;;;88.97;;
17177;SDS011;8704;52.006;4.374;2023-03-01T04:36:19;116.07;;;95.70;;
17177;SDS011;8704;52.006;4.374;2023-03-01T04:38:49;244.50;;;108.80;;
17177;SDS011;8704;52.006;4.374;2023-03-01T04:41:19;256.15;;;113.18;;
17177;SDS011;8704;52.006;4.374;2023-03-01T04:43:49;186.85;;;112.13;;
17177;SDS011;8704;52.006;4.374;2023-03-01T04:46:18;122.38;;;107.78;;
17177;SDS011;8704;52.006;4.374;2023-03-01T04:48:48;262.20;;;115.57;;
17177;SDS011;8704;52.006;4.374;2023-03-01T04:51:16;131.27;;;112.57;;
17177;SDS011;8704;52.006;4.374;2023-03-01T04:53:44;120.15;;;108.05;;
17177;SDS011;8704;52.006;4.374;2023-03-01T04:56:13;131.70;;;109.93;;
17177;SDS011;8704;52.006;4.374;2023-03-01T04:58:41;115.50;;;105.28;;
17177;SDS011;8704;52.006;4.374;2023-03-01T05:01:11;216.15;;;109.05;;
17177;SDS011;8704;52.006;4.374;2023-03-01T05:03:42;116.75;;;106.50;;
17177;SDS011;8704;52.006;4.374;2023-03-01T05:06:11;183.15;;;112.40;;
17177;SDS011;8704;52.006;4.374;2023-03-01T05:08:39;118.63;;;108.65;;
17177;SDS011;8704;52.006;4.374;2023-03-01T05:11:08;126.45;;;106.47;;
17177;SDS011;8704;52.006;4.374;2023-03-01T05:13:38;229.52;;;110.43;;
17177;SDS011;8704;52.006;4.374;2023-03-01T05:16:07;132.88;;;109.47;;
17177;SDS011;8704;52.006;4.374;2023-03-01T05:18:39;174.23;;;107.65;;
17177;SDS011;8704;52.006;4.374;2023-03-01T05:21:08;114.28;;;103.00;;
17177;SDS011;8704;52.006;4.374;2023-03-01T05:23:37;189.63;;;105.47;;
17177;SDS011;8704;52.006;4.374;2023-03-01T05:26:06;110.43;;;99.28;;
17177;SDS011;8704;52.006;4.374;2023-03-01T05:28:52;226.15;;;103.13;;
17177;SDS011;8704;52.006;4.374;2023-03-01T05:31:25;130.93;;;102.32;;
17177;SDS011;8704;52.006;4.374;2023-03-01T05:33:55;184.57;;;100.40;;
17177;SDS011;8704;52.006;4.374;2023-03-01T05:36:23;112.50;;;94.15;;
17177;SDS011;8704;52.006;4.374;2023-03-01T05:38:51;105.18;;;89.43;;
17177;SDS011;8704;52.006;4.374;2023-03-01T05:41:19;90.55;;;82.80;;
17177;SDS011;8704;52.006;4.374;2023-03-01T05:43:47;82.75;;;75.75;;
17177;SDS011;8704;52.006;4.374;2023-03-01T05:46:15;79.82;;;73.05;;
17177;SDS011;8704;52.006;4.374;2023-03-01T05:48:43;77.47;;;70.45;;
17177;SDS011;8704;52.006;4.374;2023-03-01T05:51:13;71.97;;;65.68;;
17177;SDS011;8704;52.006;4.374;2023-03-01T05:53:41;67.90;;;61.70;;
17177;SDS011;8704;52.006;4.374;2023-03-01T05:56:09;65.15;;;58.90;;
17177;SDS011;8704;52.006;4.374;2023-03-01T05:58:37;60.83;;;54.92;;
17177;SDS011;8704;52.006;4.374;2023-03-01T06:01:10;57.83;;;52.22;;
17177;SDS011;8704;52.006;4.374;2023-03-01T06:03:39;56.70;;;51.10;;
17177;SDS011;8704;52.006;4.374;2023-03-01T06:06:07;53.47;;;48.25;;
17177;SDS011;8704;52.006;4.374;2023-03-01T06:08:37;54.35;;;48.85;;
17177;SDS011;8704;52.006;4.374;2023-03-01T06:11:05;51.17;;;46.08;;
17177;SDS011;8704;52.006;4.374;2023-03-01T06:13:33;50.72;;;45.85;;
17177;SDS011;8704;52.006;4.374;2023-03-01T06:16:03;51.33;;;46.13;;
17177;SDS011;8704;52.006;4.374;2023-03-01T06:18:33;50.55;;;45.20;;
17177;SDS011;8704;52.006;4.374;2023-03-01T06:21:01;48.30;;;43.55;;
17177;SDS011;8704;52.006;4.374;2023-03-01T06:23:29;49.08;;;44.17;;
17177;SDS011;8704;52.006;4.374;2023-03-01T06:25:59;47.00;;;42.08;;
17177;SDS011;8704;52.006;4.374;2023-03-01T06:28:27;47.97;;;43.05;;
17177;SDS011;8704;52.006;4.374;2023-03-01T06:30:55;49.15;;;44.17;;
17177;SDS011;8704;52.006;4.374;2023-03-01T06:33:23;49.15;;;44.22;;
17177;SDS011;8704;52.006;4.374;2023-03-01T06:35:51;53.67;;;48.08;;
17177;SDS011;8704;52.006;4.374;2023-03-01T06:38:22;50.20;;;45.05;;
17177;SDS011;8704;52.006;4.374;2023-03-01T06:40:51;51.50;;;46.35;;
17177;SDS011;8704;52.006;4.374;2023-03-01T06:43:21;53.10;;;46.90;;
17177;SDS011;8704;52.006;4.374;2023-03-01T06:45:49;54.25;;;48.55;;
17177;SDS011;8704;52.006;4.374;2023-03-01T06:48:17;52.63;;;47.05;;
17177;SDS011;8704;52.006;4.374;2023-03-01T06:50:45;54.15;;;48.58;;
17177;SDS011;8704;52.006;4.374;2023-03-01T06:53:14;55.10;;;49.50;;
17177;SDS011;8704;52.006;4.374;2023-03-01T06:55:42;54.25;;;48.75;;
17177;SDS011;8704;52.006;4.374;2023-03-01T06:58:10;55.20;;;49.65;;
17177;SDS011;8704;52.006;4.374;2023-03-01T07:00:39;57.15;;;51.42;;
17177;SDS011;8704;52.006;4.374;2023-03-01T07:03:09;59.08;;;53.08;;
17177;SDS011;8704;52.006;4.374;2023-03-01T07:05:37;59.42;;;53.35;;
17177;SDS011;8704;52.006;4.374;2023-03-01T07:08:05;58.85;;;52.25;;
17177;SDS011;8704;52.006;4.374;2023-03-01T07:10:33;60.67;;;54.40;;
17177;SDS011;8704;52.006;4.374;2023-03-01T07:13:01;61.45;;;55.47;;
17177;SDS011;8704;52.006;4.374;2023-03-01T07:15:29;63.00;;;56.53;;
17177;SDS011;8704;52.006;4.374;2023-03-01T07:18:00;63.63;;;57.60;;
17177;SDS011;8704;52.006;4.374;2023-03-01T07:20:28;65.20;;;58.92;;
17177;SDS011;8704;52.006;4.374;2023-03-01T07:22:56;67.68;;;61.13;;
17177;SDS011;8704;52.006;4.374;2023-03-01T07:25:25;67.10;;;60.53;;
17177;SDS011;8704;52.006;4.374;2023-03-01T07:27:53;69.35;;;62.90;;
17177;SDS011;8704;52.006;4.374;2023-03-01T07:30:21;73.85;;;66.80;;
17177;SDS011;8704;52.006;4.374;2023-03-01T07:32:52;72.50;;;65.88;;
17177;SDS011;8704;52.006;4.374;2023-03-01T07:35:22;76.40;;;69.28;;
17177;SDS011;8704;52.006;4.374;2023-03-01T07:37:52;80.28;;;72.65;;
17177;SDS011;8704;52.006;4.374;2023-03-01T07:40:20;83.30;;;75.75;;
17177;SDS011;8704;52.006;4.374;2023-03-01T07:42:48;86.65;;;78.85;;
17177;SDS011;8704;52.006;4.374;2023-03-01T07:45:16;88.70;;;81.30;;
17177;SDS011;8704;52.006;4.374;2023-03-01T07:47:44;92.20;;;83.65;;
17177;SDS011;8704;52.006;4.374;2023-03-01T07:50:12;97.75;;;89.13;;
17177;SDS011;8704;52.006;4.374;2023-03-01T07:52:44;103.03;;;94.00;;
17177;SDS011;8704;52.006;4.374;2023-03-01T07:55:12;108.45;;;99.35;;
17177;SDS011;8704;52.006;4.374;2023-03-01T07:57:40;107.97;;;98.88;;
17177;SDS011;8704;52.006;4.374;2023-03-01T08:00:09;105.60;;;96.30;;
17177;SDS011;8704;52.006;4.374;2023-03-01T08:02:38;102.65;;;93.40;;
17177;SDS011;8704;52.006;4.374;2023-03-01T08:05:08;106.20;;;96.80;;
17177;SDS011;8704;52.006;4.374;2023-03-01T08:07:36;114.75;;;104.95;;
17177;SDS011;8704;52.006;4.374;2023-03-01T08:10:06;112.25;;;102.97;;
17177;SDS011;8704;52.006;4.374;2023-03-01T08:12:35;114.60;;;104.32;;
17177;SDS011;8704;52.006;4.374;2023-03-01T08:15:03;118.15;;;108.32;;
17177;SDS011;8704;52.006;4.374;2023-03-01T08:17:32;131.30;;;120.47;;
17177;SDS011;8704;52.006;4.374;2023-03-01T08:20:00;129.77;;;118.25;;
17177;SDS011;8704;52.006;4.374;2023-03-01T08:22:29;134.82;;;123.07;;
17177;SDS011;8704;52.006;4.374;2023-03-01T08:24:57;135.07;;;124.35;;
17177;SDS011;8704;52.006;4.374;2023-03-01T08:27:27;137.00;;;125.82;;
17177;SDS011;8704;52.006;4.374;2023-03-01T08:29:55;139.73;;;128.15;;
17177;SDS011;8704;52.006;4.374;2023-03-01T08:32:23;144.88;;;132.90;;
17177;SDS011;8704;52.006;4.374;2023-03-01T08:34:51;148.50;;;136.70;;
17177;SDS011;8704;52.006;4.374;2023-03-01T08:37:19;142.85;;;131.27;;
17177;SDS011;8704;52.006;4.374;2023-03-01T08:39:47;138.05;;;127.78;;
17177;SDS011;8704;52.006;4.374;2023-03-01T08:42:15;133.88;;;123.43;;
17177;SDS011;8704;52.006;4.374;2023-03-01T08:44:44;133.68;;;123.35;;
17177;SDS011;8704;52.006;4.374;2023-03-01T08:47:12;122.00;;;112.03;;
17177;SDS011;8704;52.006;4.374;2023-03-01T08:49:41;124.82;;;115.13;;
17177;SDS011;8704;52.006;4.374;2023-03-01T08:52:09;100.20;;;91.53;;
17177;SDS011;8704;52.006;4.374;2023-03-01T08:54:37;111.53;;;102.32;;
17177;SDS011;8704;52.006;4.374;2023-03-01T08:57:05;94.22;;;85.95;;
17177;SDS011;8704;52.006;4.374;2023-03-01T08:59:35;87.10;;;80.07;;
17177;SDS011;8704;52.006;4.374;2023-03-01T09:02:05;78.88;;;72.03;;
17177;SDS011;8704;52.006;4.374;2023-03-01T09:04:37;67.68;;;61.08;;
17177;SDS011;8704;52.006;4.374;2023-03-01T09:07:05;59.17;;;53.67;;
17177;SDS011;8704;52.006;4.374;2023-03-01T09:09:34;51.47;;;46.38;;
17177;SDS011;8704;52.006;4.374;2023-03-01T09:12:02;38.50;;;34.75;;
17177;SDS011;8704;52.006;4.374;2023-03-01T09:14:30;33.53;;;29.25;;
17177;SDS011;8704;52.006;4.374;2023-03-01T09:16:58;26.77;;;23.88;;
17177;SDS011;8704;52.006;4.374;2023-03-01T09:19:30;25.40;;;20.90;;
17177;SDS011;8704;52.006;4.374;2023-03-01T09:21:58;23.15;;;16.58;;
17177;SDS011;8704;52.006;4.374;2023-03-01T09:24:26;21.98;;;15.65;;
17177;SDS011;8704;52.006;4.374;2023-03-01T09:26:55;18.77;;;13.85;;
17177;SDS011;8704;52.006;4.374;2023-03-01T09:29:23;14.95;;;10.43;;
17177;SDS011;8704;52.006;4.374;2023-03-01T09:31:52;14.95;;;10.68;;
17177;SDS011;8704;52.006;4.374;2023-03-01T09:34:22;16.00;;;10.70;;
17177;SDS011;8704;52.006;4.374;2023-03-01T09:36:51;14.85;;;10.07;;
17177;SDS011;8704;52.006;4.374;2023-03-01T09:39:20;11.52;;;9.73;;
17177;SDS011;8704;52.006;4.374;2023-03-01T09:41:54;12.93;;;9.10;;
17177;SDS011;8704;52.006;4.374;2023-03-01T09:44:29;10.25;;;7.55;;
17177;SDS011;8704;52.006;4.374;2023-03-01T09:47:01;10.98;;;7.10;;
17177;SDS011;8704;52.006;4.374;2023-03-01T09:49:31;9.73;;;6.60;;
17177;SDS011;8704;52.006;4.374;2023-03-01T09:52:06;9.13;;;5.97;;
17177;SDS011;8704;52.006;4.374;2023-03-01T09:54:42;7.50;;;5.70;;
17177;SDS011;8704;52.006;4.374;2023-03-01T09:57:16;8.88;;;5.75;;
17177;SDS011;8704;52.006;4.374;2023-03-01T09:59:51;8.50;;;5.93;;
17177;SDS011;8704;52.006;4.374;2023-03-01T10:02:32;9.15;;;6.35;;
17177;SDS011;8704;52.006;4.374;2023-03-01T10:05:12;11.25;;;6.80;;
17177;SDS011;8704;52.006;4.374;2023-03-01T10:08:00;9.20;;;6.40;;
17177;SDS011;8704;52.006;4.374;2023-03-01T10:10:43;10.48;;;5.93;;
17177;SDS011;8704;52.006;4.374;2023-03-01T10:13:15;8.18;;;6.10;;
17177;SDS011;8704;52.006;4.374;2023-03-01T10:15:47;9.77;;;7.18;;
17177;SDS011;8704;52.006;4.374;2023-03-01T10:18:21;9.30;;;6.65;;
17177;SDS011;8704;52.006;4.374;2023-03-01T10:20:53;9.90;;;7.15;;
17177;SDS011;8704;52.006;4.374;2023-03-01T10:23:27;12.85;;;7.43;;
17177;SDS011;8704;52.006;4.374;2023-03-01T10:29:02;9.18;;;5.90;;
17177;SDS011;8704;52.006;4.374;2023-03-01T10:31:37;9.93;;;6.65;;
17177;SDS011;8704;52.006;4.374;2023-03-01T10:34:13;8.70;;;6.35;;
17177;SDS011;8704;52.006;4.374;2023-03-01T10:36:44;10.70;;;6.75;;
17177;SDS011;8704;52.006;4.374;2023-03-01T10:39:17;8.85;;;6.53;;
17177;SDS011;8704;52.006;4.374;2023-03-01T10:41:56;9.65;;;6.75;;
17177;SDS011;8704;52.006;4.374;2023-03-01T10:44:36;8.88;;;5.47;;
17177;SDS011;8704;52.006;4.374;2023-03-01T10:47:11;10.38;;;6.18;;
17177;SDS011;8704;52.006;4.374;2023-03-01T10:49:53;9.52;;;5.78;;
17177;SDS011;8704;52.006;4.374;2023-03-01T10:52:24;9.07;;;5.22;;
17177;SDS011;8704;52.006;4.374;2023-03-01T10:54:56;8.10;;;5.22;;
17177;SDS011;8704;52.006;4.374;2023-03-01T11:00:02;7.80;;;5.43;;
17177;SDS011;8704;52.006;4.374;2023-03-01T11:02:46;8.90;;;5.80;;
17177;SDS011;8704;52.006;4.374;2023-03-01T11:05:18;9.20;;;5.45;;
17177;SDS011;8704;52.006;4.374;2023-03-01T11:07:50;8.15;;;6.18;;
17177;SDS011;8704;52.006;4.374;2023-03-01T11:10:22;8.98;;;6.20;;
17177;SDS011;8704;52.006;4.374;2023-03-01T11:12:52;10.43;;;5.90;;
17177;SDS011;8704;52.006;4.374;2023-03-01T11:15:22;8.63;;;6.07;;
17177;SDS011;8704;52.006;4.374;2023-03-01T11:17:52;7.38;;;5.57;;
17177;SDS011;8704;52.006;4.374;2023-03-01T11:20:38;10.68;;;5.70;;
17177;SDS011;8704;52.006;4.374;2023-03-01T11:23:08;8.90;;;5.88;;
17177;SDS011;8704;52.006;4.374;2023-03-01T11:25:41;8.30;;;5.82;;
17177;SDS011;8704;52.006;4.374;2023-03-01T11:28:12;9.88;;;5.95;;
17177;SDS011;8704;52.006;4.374;2023-03-01T11:30:45;8.98;;;6.32;;
17177;SDS011;8704;52.006;4.374;2023-03-01T11:33:34;11.65;;;7.10;;
17177;SDS011;8704;52.006;4.374;2023-03-01T11:36:07;10.77;;;7.18;;
17177;SDS011;8704;52.006;4.374;2023-03-01T11:38:43;10.75;;;6.90;;
17177;SDS011;8704;52.006;4.374;2023-03-01T11:41:14;10.75;;;7.53;;
17177;SDS011;8704;52.006;4.374;2023-03-01T11:43:47;9.98;;;7.18;;
17177;SDS011;8704;52.006;4.374;2023-03-01T11:46:35;8.50;;;7.10;;
17177;SDS011;8704;52.006;4.374;2023-03-01T11:52:15;11.15;;;8.23;;
17177;SDS011;8704;52.006;4.374;2023-03-01T11:54:52;11.80;;;8.23;;
17177;SDS011;8704;52.006;4.374;2023-03-01T11:57:36;11.50;;;7.75;;
17177;SDS011;8704;52.006;4.374;2023-03-01T12:00:21;15.27;;;8.23;;
17177;SDS011;8704;52.006;4.374;2023-03-01T12:03:16;10.93;;;7.80;;
17177;SDS011;8704;52.006;4.374;2023-03-01T12:09:06;16.88;;;11.73;;
17177;SDS011;8704;52.006;4.374;2023-03-01T12:11:52;18.38;;;11.77;;
17177;SDS011;8704;52.006;4.374;2023-03-01T12:14:41;17.48;;;12.93;;
17177;SDS011;8704;52.006;4.374;2023-03-01T12:17:22;17.98;;;13.10;;
17177;SDS011;8704;52.006;4.374;2023-03-01T12:20:10;19.73;;;12.90;;
17177;SDS011;8704;52.006;4.374;2023-03-01T12:22:55;15.40;;;11.98;;
17177;SDS011;8704;52.006;4.374;2023-03-01T12:25:46;18.75;;;14.30;;
17177;SDS011;8704;52.006;4.374;2023-03-01T12:31:29;16.08;;;11.20;;
17177;SDS011;8704;52.006;4.374;2023-03-01T12:34:12;13.18;;;10.50;;
17177;SDS011;8704;52.006;4.374;2023-03-01T12:36:56;17.33;;;10.98;;
17177;SDS011;8704;52.006;4.374;2023-03-01T12:39:42;16.15;;;11.00;;
17177;SDS011;8704;52.006;4.374;2023-03-01T12:42:21;15.73;;;10.88;;
17177;SDS011;8704;52.006;4.374;2023-03-01T12:45:01;15.52;;;11.88;;
17177;SDS011;8704;52.006;4.374;2023-03-01T12:47:58;17.02;;;12.30;;
17177;SDS011;8704;52.006;4.374;2023-03-01T12:50:39;16.25;;;12.45;;
17177;SDS011;8704;52.006;4.374;2023-03-01T12:53:15;15.18;;;12.25;;
17177;SDS011;8704;52.006;4.374;2023-03-01T12:55:50;16.77;;;12.10;;
17177;SDS011;8704;52.006;4.374;2023-03-01T12:58:24;14.65;;;11.25;;
17177;SDS011;8704;52.006;4.374;2023-03-01T13:01:16;14.75;;;11.07;;
17177;SDS011;8704;52.006;4.374;2023-03-01T13:06:50;13.45;;;10.38;;
17177;SDS011;8704;52.006;4.374;2023-03-01T13:09:28;16.20;;;10.60;;
17177;SDS011;8704;52.006;4.374;2023-03-01T13:12:02;14.00;;;10.70;;
17177;SDS011;8704;52.006;4.374;2023-03-01T13:14:44;16.05;;;11.85;;
17177;SDS011;8704;52.006;4.374;2023-03-01T13:17:29;13.90;;;11.07;;
17177;SDS011;8704;52.006;4.374;2023-03-01T13:20:01;13.10;;;10.93;;
17177;SDS011;8704;52.006;4.374;2023-03-01T13:22:31;16.63;;;11.13;;
17177;SDS011;8704;52.006;4.374;2023-03-01T13:25:13;10.82;;;8.55;;
17177;SDS011;8704;52.006;4.374;2023-03-01T13:27:44;12.55;;;8.85;;
17177;SDS011;8704;52.006;4.374;2023-03-01T13:36:10;12.18;;;7.68;;
17177;SDS011;8704;52.006;4.374;2023-03-01T13:38:45;11.20;;;8.00;;
17177;SDS011;8704;52.006;4.374;2023-03-01T13:41:14;8.60;;;6.85;;
17177;SDS011;8704;52.006;4.374;2023-03-01T13:43:44;9.30;;;6.68;;
17177;SDS011;8704;52.006;4.374;2023-03-01T13:46:16;8.38;;;5.60;;
17177;SDS011;8704;52.006;4.374;2023-03-01T13:48:47;8.45;;;6.20;;
17177;SDS011;8704;52.006;4.374;2023-03-01T13:51:22;10.20;;;6.43;;
17177;SDS011;8704;52.006;4.374;2023-03-01T13:53:52;8.57;;;6.57;;
17177;SDS011;8704;52.006;4.374;2023-03-01T13:56:24;9.32;;;6.32;;
17177;SDS011;8704;52.006;4.374;2023-03-01T13:58:54;9.15;;;6.30;;
17177;SDS011;8704;52.006;4.374;2023-03-01T14:01:29;8.50;;;6.15;;
17177;SDS011;8704;52.006;4.374;2023-03-01T14:03:59;9.68;;;6.60;;
17177;SDS011;8704;52.006;4.374;2023-03-01T14:06:29;7.82;;;6.22;;
17177;SDS011;8704;52.006;4.374;2023-03-01T14:09:01;7.43;;;6.13;;
17177;SDS011;8704;52.006;4.374;2023-03-01T14:11:50;8.48;;;5.93;;
17177;SDS011;8704;52.006;4.374;2023-03-01T14:14:39;8.77;;;5.90;;
17177;SDS011;8704;52.006;4.374;2023-03-01T14:20:17;8.50;;;5.50;;
17177;SDS011;8704;52.006;4.374;2023-03-01T14:22:49;8.43;;;5.95;;
17177;SDS011;8704;52.006;4.374;2023-03-01T14:27:56;8.77;;;5.93;;
17177;SDS011;8704;52.006;4.374;2023-03-01T14:30:31;7.88;;;6.07;;
17177;SDS011;8704;52.006;4.374;2023-03-01T14:33:03;7.75;;;6.20;;
17177;SDS011;8704;52.006;4.374;2023-03-01T14:35:34;10.02;;;6.00;;
17177;SDS011;8704;52.006;4.374;2023-03-01T14:38:04;8.63;;;5.75;;
17177;SDS011;8704;52.006;4.374;2023-03-01T14:40:34;9.85;;;6.32;;
17177;SDS011;8704;52.006;4.374;2023-03-01T14:43:08;9.07;;;6.28;;
17177;SDS011;8704;52.006;4.374;2023-03-01T14:45:38;7.72;;;5.18;;
17177;SDS011;8704;52.006;4.374;2023-03-01T14:48:06;7.00;;;5.25;;
17177;SDS011;8704;52.006;4.374;2023-03-01T14:50:35;7.72;;;5.80;;
17177;SDS011;8704;52.006;4.374;2023-03-01T14:53:15;7.55;;;6.00;;
17177;SDS011;8704;52.006;4.374;2023-03-01T14:55:46;7.25;;;5.78;;
17177;SDS011;8704;52.006;4.374;2023-03-01T14:58:19;7.35;;;5.72;;
17177;SDS011;8704;52.006;4.374;2023-03-01T15:00:49;8.48;;;5.88;;
17177;SDS011;8704;52.006;4.374;2023-03-01T15:03:23;8.65;;;5.95;;
17177;SDS011;8704;52.006;4.374;2023-03-01T15:05:53;8.77;;;6.80;;
17177;SDS011;8704;52.006;4.374;2023-03-01T15:08:24;7.82;;;6.65;;
17177;SDS011;8704;52.006;4.374;2023-03-01T15:11:00;7.68;;;6.25;;
17177;SDS011;8704;52.006;4.374;2023-03-01T15:13:33;8.45;;;6.28;;
17177;SDS011;8704;52.006;4.374;2023-03-01T15:16:03;8.85;;;6.80;;
17177;SDS011;8704;52.006;4.374;2023-03-01T15:18:36;8.65;;;5.80;;
17177;SDS011;8704;52.006;4.374;2023-03-01T15:21:15;7.28;;;5.30;;
17177;SDS011;8704;52.006;4.374;2023-03-01T15:23:49;7.20;;;5.22;;
17177;SDS011;8704;52.006;4.374;2023-03-01T15:26:24;7.45;;;5.72;;
17177;SDS011;8704;52.006;4.374;2023-03-01T15:28:57;9.40;;;6.70;;
17177;SDS011;8704;52.006;4.374;2023-03-01T15:31:27;7.07;;;5.18;;
17177;SDS011;8704;52.006;4.374;2023-03-01T15:34:11;6.72;;;5.15;;
17177;SDS011;8704;52.006;4.374;2023-03-01T15:39:32;6.45;;;5.30;;
17177;SDS011;8704;52.006;4.374;2023-03-01T15:42:04;8.05;;;5.65;;